Portada
METAR-TAF:

METAR-TAF

Aeroports :

Antananarivo, Madagascar

latitud: 18-48S, longitud: 047-29E, altitud: 1279 m

Observació

L'informe es va fer fa 7 minuts, a les 20:00 UTC
Vent 4 kt del Sud-Est, variant entre Est/Sud-Est i Sud
Temperatura 19°C
Humitat 88%
Pressió 1020 hPa
Visibilitat 10 km o més
Escasses núvols a una alçada de 1700 ft
Cel ennuvolat a una alçada de 2000 ft

METAR: FMMI 202000Z 14004KT 110V180 9999 FEW017 BKN020 19/17 Q1020 NOSIG

Hora: 23:07 (20:07 UTC)

Pronòstic

L'informe es va fer fa 3 hores i 7 minuts, a les 17:00 UTC
Pronòstic vàlid del 20 a les 18 UTC al 21 a les 24 UTC
Vent 8 kt del Est
Visibilitat 10 km o més
Núvols disperses a una alçada de 2000 ft
Probabilitat 40%
l' 21 a les 01 UTC al 21 a les 06 UTC
Visibilitat: 1500 m
Cel ennuvolat a una alçada de 700 ft
boirina
Probabilitat 30% :
Temporalment
l' 21 a les 14 UTC al 21 a les 20 UTC
tempesta, pluja

TAF: FMMI 201700Z 2018/2124 10008KT 9999 SCT020 PROB40 2101/2106 1500 BR BKN007 PROB30 TEMPO 2114/2120 TSRA

Observacions i pronòstics meteorològics de més de 4000 aeroports (METAR i TAF).

Les estacions disponibles són els punts grocs i vermells al mapa.

Posi el ratolí al punt desitjat per veure el nom de l'estació.

Feu clic per veure les observacions i els pronòstics meteorològics.

Per canviar el mapa: feu clic els botons verds amb una creu de color negre per apropar; al botó verd amb un guió per allunyar la imatge; o en les fletxes verdes per a mapes adjacents.


METAR-TAF: